Terminal Aerodrome Forecast
Issued by NWS

Home | Current Version | Previous Version | Text Only | Print | Product List | Glossary On
Versions: 1 2 3 4 5 6 7 8 9 10 11 12 13 14 15 16
775
FTUS43 KAPX 121123
TAFMBL
TAF
KMBL 121123Z 1212/1312 28014G24KT P6SM SCT040 OVC060
     FM121500 29010G18KT 6SM -SHSN SCT025 OVC040
     FM121900 31017G27KT 2SM -SHSN BLSN BKN025 BKN040
     FM130000 33012G21KT 4SM -SHSN BLSN SCT025 BKN040
      AMD LTD TO CLD VIS AND WIND=

USA.gov is the U.S. government's official web portal to all federal, state and local government web resources and services.